Time;durP1;ratioP1;P1;durP2;ratioP2;P2;SDS_P1;SDS_P2;PMS_P1;PMS_P2;Temp;Humidity;BMP_temperature;BMP_pressure;BME280_temperature;BME280_humidity;BME280_pressure;Samples;Min_cycle;Max_cycle;Signal;HPM_P1;HPM_P2
2023/08/01 00:02:19;;;;;;;4.90;4.50;;;18.80;99.90;;;;;;5206856;28;20091;-70
2023/08/01 00:04:50;;;;;;;4.72;4.43;;;18.80;99.90;;;;;;5207604;28;20026;-71
2023/08/01 00:07:21;;;;;;;5.10;4.70;;;18.70;99.90;;;;;;5207585;28;20064;-70
2023/08/01 00:09:52;;;;;;;4.65;4.25;;;18.70;99.90;;;;;;5207411;28;20083;-70
2023/08/01 00:12:24;;;;;;;4.93;4.50;;;18.70;99.90;;;;;;5207322;28;20025;-70
2023/08/01 00:14:55;;;;;;;5.07;4.50;;;18.60;99.90;;;;;;5207313;28;20025;-70
2023/08/01 00:17:26;;;;;;;5.00;4.70;;;18.50;99.90;;;;;;5207250;28;20029;-71
2023/08/01 00:19:57;;;;;;;4.97;4.57;;;18.40;99.90;;;;;;5207184;28;20017;-70
2023/08/01 00:22:28;;;;;;;5.50;5.00;;;18.50;99.90;;;;;;5206986;28;20448;-70
2023/08/01 00:24:58;;;;;;;4.55;4.25;;;18.60;99.90;;;;;;5205871;28;20493;-70
2023/08/01 00:27:32;;;;;;;5.25;4.85;;;18.70;99.90;;;;;;5207227;28;20041;-71
2023/08/01 00:30:03;;;;;;;4.90;4.60;;;18.60;99.90;;;;;;5207102;28;20017;-72
2023/08/01 00:32:34;;;;;;;4.78;4.38;;;18.60;99.90;;;;;;5207025;28;20028;-70
2023/08/01 00:35:05;;;;;;;4.80;4.50;;;18.40;99.90;;;;;;5207073;28;20108;-71
2023/08/01 00:37:38;;;;;;;5.07;4.57;;;18.40;99.90;;;;;;5206948;28;20068;-70
2023/08/01 00:40:09;;;;;;;4.90;4.32;;;18.60;99.90;;;;;;5206012;28;20025;-70
2023/08/01 00:42:40;;;;;;;4.68;4.38;;;18.60;99.90;;;;;;5206369;28;20041;-71
2023/08/01 00:45:11;;;;;;;4.63;4.30;;;18.40;99.90;;;;;;5205551;28;20076;-70
2023/08/01 00:47:42;;;;;;;4.95;4.53;;;18.50;99.90;;;;;;5205276;28;20112;-71
2023/08/01 00:50:12;;;;;;;4.80;4.50;;;18.40;99.90;;;;;;5205153;28;20473;-70
2023/08/01 00:52:43;;;;;;;5.40;4.40;;;18.40;99.90;;;;;;5205189;28;20029;-71
2023/08/01 00:55:15;;;;;;;5.05;4.65;;;18.40;99.90;;;;;;5204929;28;20037;-70
2023/08/01 00:57:47;;;;;;;4.95;4.55;;;18.30;99.90;;;;;;5205039;28;20025;-71
2023/08/01 01:00:18;;;;;;;5.20;4.80;;;18.40;99.90;;;;;;5205827;28;20469;-71
2023/08/01 01:02:49;;;;;;;4.55;4.25;;;18.50;99.90;;;;;;5206293;28;20034;-71
2023/08/01 01:05:22;;;;;;;4.35;4.05;;;18.40;99.90;;;;;;5206316;28;20045;-70
2023/08/01 01:07:53;;;;;;;4.25;3.95;;;18.40;99.90;;;;;;5206305;28;20033;-71
2023/08/01 01:10:24;;;;;;;4.35;3.95;;;18.30;99.90;;;;;;5206160;28;20034;-70
2023/08/01 01:12:55;;;;;;;5.00;4.60;;;18.40;99.90;;;;;;5206204;28;20037;-71
2023/08/01 01:15:26;;;;;;;4.50;4.10;;;18.40;99.90;;;;;;5206227;28;20052;-70
2023/08/01 01:17:57;;;;;;;5.10;4.60;;;18.40;99.90;;;;;;5206108;28;20358;-71
2023/08/01 01:20:34;;;;;;;4.72;4.43;;;18.30;99.90;;;;;;5205977;28;20386;-72
2023/08/01 01:23:06;;;;;;;4.90;4.57;;;18.40;99.90;;;;;;5206052;28;20405;-71
2023/08/01 01:25:38;;;;;;;4.40;4.10;;;18.30;99.90;;;;;;5206040;28;20017;-71
2023/08/01 01:28:11;;;;;;;5.45;5.05;;;18.20;99.90;;;;;;5206019;28;20032;-72
2023/08/01 01:30:43;;;;;;;4.97;4.68;;;18.20;99.90;;;;;;5205913;28;20030;-70
2023/08/01 01:33:14;;;;;;;5.70;5.30;;;18.20;99.90;;;;;;5205988;28;20029;-71
2023/08/01 01:35:46;;;;;;;5.75;4.18;;;18.20;99.90;;;;;;5205160;28;20473;-71
2023/08/01 01:38:17;;;;;;;4.95;4.65;;;18.20;99.90;;;;;;5205603;28;20499;-71
2023/08/01 01:40:48;;;;;;;5.22;4.72;;;18.20;99.90;;;;;;5204424;28;20021;-70
2023/08/01 01:43:19;;;;;;;5.20;4.65;;;18.10;99.90;;;;;;5204641;28;20025;-71
2023/08/01 01:45:50;;;;;;;4.72;4.43;;;18.10;99.90;;;;;;5204594;28;20037;-72
2023/08/01 01:48:21;;;;;;;4.63;4.32;;;18.00;99.90;;;;;;5204456;28;20104;-70
2023/08/01 01:50:51;;;;;;;6.85;4.65;;;18.10;99.90;;;;;;5204252;28;20045;-71
2023/08/01 01:53:22;;;;;;;5.30;4.90;;;18.10;99.90;;;;;;5204389;28;20030;-70
2023/08/01 01:55:53;;;;;;;4.80;4.50;;;18.00;99.90;;;;;;5205980;28;20037;-71
2023/08/01 01:58:24;;;;;;;5.13;4.55;;;17.90;99.90;;;;;;5205880;28;20053;-70
2023/08/01 02:00:55;;;;;;;5.20;4.80;;;17.90;99.90;;;;;;5205624;28;20452;-71
2023/08/01 02:03:26;;;;;;;5.28;4.72;;;17.90;99.90;;;;;;5205897;28;20492;-70
2023/08/01 02:05:57;;;;;;;5.25;4.85;;;18.00;99.90;;;;;;5205783;28;20401;-70
2023/08/01 02:08:27;;;;;;;5.47;5.07;;;18.00;99.90;;;;;;5205701;28;20026;-70
2023/08/01 02:10:58;;;;;;;5.18;4.78;;;17.80;99.90;;;;;;5208225;28;20032;-71
2023/08/01 02:13:34;;;;;;;4.85;4.55;;;17.80;99.90;;;;;;5209635;28;20029;-71
2023/08/01 02:16:11;;;;;;;5.75;5.18;;;17.90;99.90;;;;;;5209670;28;20107;-71
2023/08/01 02:19:00;;;;;;;5.40;4.95;;;17.90;99.90;;;;;;5209557;28;20036;-71
2023/08/01 02:21:40;;;;;;;5.80;5.40;;;17.90;99.90;;;;;;5209323;28;20025;-71
2023/08/01 02:24:11;;;;;;;5.88;5.38;;;17.90;99.90;;;;;;5207937;28;20034;-70
2023/08/01 02:26:42;;;;;;;5.00;4.70;;;17.80;99.90;;;;;;5209377;28;20017;-71
2023/08/01 02:29:13;;;;;;;5.80;5.40;;;17.80;99.90;;;;;;5209386;28;20079;-70
2023/08/01 02:31:44;;;;;;;5.53;5.13;;;17.80;99.90;;;;;;5208492;28;20036;-71
2023/08/01 02:34:14;;;;;;;6.00;5.60;;;17.80;99.90;;;;;;5209027;28;20024;-70
2023/08/01 02:36:45;;;;;;;5.45;5.05;;;17.80;99.90;;;;;;5207794;28;20033;-71
2023/08/01 02:39:16;;;;;;;6.03;5.45;;;17.90;99.90;;;;;;5207846;28;20080;-73
2023/08/01 02:41:47;;;;;;;6.10;5.70;;;17.90;99.90;;;;;;5207609;28;20083;-70
2023/08/01 02:44:18;;;;;;;5.90;5.50;;;17.80;99.90;;;;;;5206559;28;20031;-70
2023/08/01 02:46:49;;;;;;;5.75;5.35;;;17.50;99.90;;;;;;5207646;28;20388;-70
2023/08/01 02:49:20;;;;;;;5.90;5.50;;;17.70;99.90;;;;;;5207725;28;20035;-70
2023/08/01 02:51:50;;;;;;;6.07;5.60;;;17.70;99.90;;;;;;5208837;28;20108;-70
2023/08/01 02:54:21;;;;;;;6.32;5.82;;;17.70;99.90;;;;;;5208600;28;20104;-70
2023/08/01 02:56:52;;;;;;;6.40;5.95;;;17.70;99.90;;;;;;5207453;28;20029;-73
2023/08/01 02:59:24;;;;;;;6.32;5.93;;;17.70;99.90;;;;;;5208913;28;20107;-70
2023/08/01 03:01:54;;;;;;;7.22;6.72;;;17.70;99.90;;;;;;5208706;28;20427;-71
2023/08/01 03:04:25;;;;;;;8.05;7.55;;;17.70;99.90;;;;;;5207690;28;20112;-71
2023/08/01 03:06:56;;;;;;;8.57;7.97;;;17.70;99.90;;;;;;5208897;28;20025;-71
2023/08/01 03:09:27;;;;;;;8.27;7.68;;;17.70;99.90;;;;;;5208593;28;20034;-70
2023/08/01 03:11:58;;;;;;;7.18;6.70;;;17.70;99.90;;;;;;5208561;28;20013;-70
2023/08/01 03:14:29;;;;;;;8.18;7.68;;;17.80;99.90;;;;;;5208481;28;20029;-70
2023/08/01 03:17:00;;;;;;;7.53;7.03;;;17.60;99.90;;;;;;5208475;28;20013;-71
2023/08/01 03:19:30;;;;;;;7.70;7.20;;;17.60;99.90;;;;;;5207027;28;20037;-70
2023/08/01 03:22:01;;;;;;;8.38;7.60;;;17.60;99.90;;;;;;5204724;28;20135;-70
2023/08/01 03:24:32;;;;;;;8.20;7.60;;;17.60;99.90;;;;;;5207352;28;20064;-73
2023/08/01 03:27:04;;;;;;;7.50;7.10;;;17.50;99.90;;;;;;5207811;28;20079;-71
2023/08/01 03:29:34;;;;;;;8.27;7.78;;;17.60;99.90;;;;;;5207744;28;20032;-70
2023/08/01 03:32:06;;;;;;;8.05;7.53;;;17.70;99.90;;;;;;5206943;28;20030;-71
2023/08/01 03:34:38;;;;;;;7.38;6.88;;;17.70;99.90;;;;;;5206658;28;20032;-71
2023/08/01 03:37:09;;;;;;;8.07;7.28;;;17.70;99.90;;;;;;5206235;28;20140;-71
2023/08/01 03:39:40;;;;;;;8.43;7.82;;;17.70;99.90;;;;;;5205705;28;20097;-71
2023/08/01 03:42:11;;;;;;;8.38;7.78;;;17.80;99.90;;;;;;5206465;28;20037;-71
2023/08/01 03:44:42;;;;;;;7.97;7.45;;;17.70;99.90;;;;;;5206494;28;20017;-72
2023/08/01 03:47:13;;;;;;;8.77;8.18;;;17.80;99.90;;;;;;5207493;28;20044;-71
2023/08/01 03:49:44;;;;;;;8.15;7.65;;;17.90;99.90;;;;;;5207653;28;20020;-71
2023/08/01 03:52:14;;;;;;;8.27;7.68;;;17.90;99.90;;;;;;5207940;28;20103;-71
2023/08/01 03:54:46;;;;;;;8.43;7.78;;;18.00;99.90;;;;;;5207643;28;20184;-71
2023/08/01 03:57:17;;;;;;;7.00;6.40;;;18.00;99.90;;;;;;5207645;28;20029;-71
2023/08/01 03:59:47;;;;;;;6.55;6.15;;;18.00;99.90;;;;;;5207569;28;20104;-71
2023/08/01 04:02:18;;;;;;;6.97;6.47;;;18.20;99.90;;;;;;5207462;28;20041;-71
2023/08/01 04:04:49;;;;;;;6.20;5.70;;;18.20;99.90;;;;;;5207379;28;20026;-71
2023/08/01 04:07:20;;;;;;;6.30;5.82;;;18.30;99.90;;;;;;5207481;28;20512;-71
2023/08/01 04:09:51;;;;;;;6.30;5.90;;;18.30;99.90;;;;;;5207287;28;20423;-72
2023/08/01 04:12:22;;;;;;;5.50;5.10;;;18.40;99.90;;;;;;5207438;28;20033;-71
2023/08/01 04:14:53;;;;;;;5.95;5.45;;;18.60;99.90;;;;;;5207452;28;20018;-71
2023/08/01 04:17:23;;;;;;;6.18;5.68;;;18.60;99.90;;;;;;5207451;28;20029;-71
2023/08/01 04:19:54;;;;;;;5.90;5.40;;;18.60;99.90;;;;;;5207342;28;20018;-71
2023/08/01 04:22:25;;;;;;;5.57;5.18;;;18.60;99.90;;;;;;5206012;28;20041;-71
2023/08/01 04:24:56;;;;;;;5.90;5.40;;;18.70;99.90;;;;;;5206903;28;20017;-71
2023/08/01 04:27:27;;;;;;;5.32;4.93;;;18.70;99.90;;;;;;5206379;28;20022;-71
2023/08/01 04:29:58;;;;;;;5.53;5.10;;;18.80;99.90;;;;;;5204338;28;20022;-71
2023/08/01 04:32:29;;;;;;;6.22;5.63;;;18.90;99.90;;;;;;5205492;28;20041;-72
2023/08/01 04:35:00;;;;;;;5.65;5.07;;;18.90;99.90;;;;;;5205591;28;20477;-71
2023/08/01 04:37:31;;;;;;;5.40;4.88;;;19.00;99.90;;;;;;5205474;28;20029;-71
2023/08/01 04:40:02;;;;;;;5.45;5.05;;;19.00;99.90;;;;;;5205584;28;20079;-71
2023/08/01 04:42:33;;;;;;;5.07;4.68;;;19.00;99.90;;;;;;5205920;28;20045;-71
2023/08/01 04:45:06;;;;;;;5.47;5.07;;;19.10;99.90;;;;;;5206753;28;20025;-71
2023/08/01 04:47:37;;;;;;;5.68;5.28;;;19.00;99.90;;;;;;5206797;28;20476;-71
2023/08/01 04:50:08;;;;;;;5.53;5.10;;;19.30;99.90;;;;;;5206649;28;20132;-71
2023/08/01 04:52:39;;;;;;;4.93;4.53;;;19.40;99.90;;;;;;5206374;28;20123;-71
2023/08/01 04:55:10;;;;;;;5.38;4.88;;;19.60;99.90;;;;;;5206039;28;20111;-73
2023/08/01 04:57:40;;;;;;;5.30;4.90;;;19.80;99.90;;;;;;5206519;28;20033;-71
2023/08/01 05:00:12;;;;;;;6.07;5.57;;;20.00;99.90;;;;;;5205511;28;20022;-71
2023/08/01 05:02:43;;;;;;;6.03;5.50;;;20.20;99.90;;;;;;5206420;28;20044;-73
2023/08/01 05:05:15;;;;;;;5.30;4.90;;;20.20;99.90;;;;;;5206420;28;20018;-71
2023/08/01 05:07:46;;;;;;;5.25;4.85;;;20.20;99.90;;;;;;5206381;28;20033;-71
2023/08/01 05:10:17;;;;;;;5.47;4.97;;;20.40;99.90;;;;;;5206193;28;20018;-73
2023/08/01 05:12:48;;;;;;;5.03;4.68;;;20.70;99.90;;;;;;5206355;28;20029;-70
2023/08/01 05:15:19;;;;;;;5.55;4.93;;;20.80;99.90;;;;;;5206214;28;20541;-71
2023/08/01 05:17:50;;;;;;;5.93;5.07;;;21.00;99.90;;;;;;5204800;28;20480;-71
2023/08/01 05:20:20;;;;;;;5.30;4.90;;;21.20;99.90;;;;;;5205210;28;20469;-71
2023/08/01 05:22:51;;;;;;;5.68;5.18;;;21.40;99.90;;;;;;5205032;28;20572;-71
2023/08/01 05:25:22;;;;;;;5.75;5.35;;;21.70;99.90;;;;;;5204759;28;20469;-71
2023/08/01 05:27:53;;;;;;;5.57;5.07;;;21.80;99.90;;;;;;5204672;28;20026;-70
2023/08/01 05:30:25;;;;;;;6.15;5.55;;;22.10;99.90;;;;;;5204501;28;20048;-70
2023/08/01 05:32:56;;;;;;;10.77;5.10;;;22.40;99.90;;;;;;5204781;28;20381;-70
2023/08/01 05:35:26;;;;;;;7.32;5.28;;;22.60;99.90;;;;;;5204575;28;20026;-71
2023/08/01 05:37:57;;;;;;;6.10;5.50;;;22.90;99.90;;;;;;5205014;28;20052;-70
2023/08/01 05:40:28;;;;;;;6.93;5.32;;;23.10;99.90;;;;;;5205928;28;20108;-71
2023/08/01 05:42:59;;;;;;;4.75;4.40;;;23.20;99.90;;;;;;5205910;28;20538;-70
2023/08/01 05:45:30;;;;;;;5.95;5.45;;;23.40;99.90;;;;;;5205289;28;20014;-70
2023/08/01 05:48:02;;;;;;;5.50;5.00;;;23.70;99.90;;;;;;5205771;28;20418;-70
2023/08/01 05:50:33;;;;;;;9.13;5.35;;;23.90;99.90;;;;;;5205574;28;20029;-70
2023/08/01 05:53:04;;;;;;;6.03;5.53;;;24.10;99.90;;;;;;5205662;28;20039;-70
2023/08/01 05:55:35;;;;;;;8.05;5.15;;;24.20;99.90;;;;;;5205471;28;20050;-70
2023/08/01 05:58:05;;;;;;;6.18;5.15;;;24.30;99.90;;;;;;5205621;28;20030;-70
2023/08/01 06:00:36;;;;;;;7.00;6.40;;;24.40;99.90;;;;;;5205514;28;20045;-70
2023/08/01 06:03:07;;;;;;;7.68;6.93;;;24.30;99.90;;;;;;5205263;28;20033;-70
2023/08/01 06:05:38;;;;;;;7.25;6.70;;;24.50;99.90;;;;;;5204908;28;20014;-70
2023/08/01 06:08:09;;;;;;;6.72;6.05;;;24.40;99.90;;;;;;5204758;28;20436;-71
2023/08/01 06:10:40;;;;;;;6.30;5.88;;;24.40;99.90;;;;;;5204174;28;20633;-70
2023/08/01 06:13:11;;;;;;;7.35;6.75;;;24.30;99.90;;;;;;5203038;28;20025;-70
2023/08/01 06:15:42;;;;;;;7.20;6.50;;;24.50;99.90;;;;;;5204307;28;20037;-71
2023/08/01 06:18:12;;;;;;;6.03;5.60;;;24.70;99.90;;;;;;5204147;28;20029;-70
2023/08/01 06:20:43;;;;;;;6.88;6.18;;;24.80;99.90;;;;;;5204191;28;20389;-71
2023/08/01 06:23:14;;;;;;;5.75;5.25;;;24.80;99.90;;;;;;5204737;28;20068;-70
2023/08/01 06:25:45;;;;;;;6.45;5.95;;;24.80;99.90;;;;;;5205359;28;20029;-71
2023/08/01 06:28:16;;;;;;;6.45;5.88;;;24.90;99.90;;;;;;5205328;28;20026;-70
2023/08/01 06:30:47;;;;;;;5.25;4.78;;;24.80;99.90;;;;;;5205203;28;20021;-70
2023/08/01 06:33:18;;;;;;;6.25;5.15;;;24.70;99.90;;;;;;5205208;28;20036;-70
2023/08/01 06:35:49;;;;;;;5.43;4.93;;;24.90;99.90;;;;;;5205329;28;20499;-70
2023/08/01 06:38:20;;;;;;;5.30;4.82;;;24.80;99.90;;;;;;5205468;28;20038;-70
2023/08/01 06:40:51;;;;;;;5.40;4.90;;;24.80;99.90;;;;;;5205229;28;20068;-71
2023/08/01 06:43:24;;;;;;;6.20;5.20;;;25.00;99.90;;;;;;5203879;28;20034;-70
2023/08/01 06:45:55;;;;;;;5.57;5.05;;;25.30;99.90;;;;;;5205339;28;20108;-70
2023/08/01 06:48:26;;;;;;;6.70;6.10;;;25.60;99.90;;;;;;5205383;28;20119;-71
2023/08/01 06:50:57;;;;;;;7.60;6.97;;;25.50;99.90;;;;;;5205115;28;20029;-71
2023/08/01 06:53:28;;;;;;;7.03;6.45;;;25.30;99.90;;;;;;5205271;28;20121;-70
2023/08/01 06:55:58;;;;;;;7.38;6.78;;;25.30;99.90;;;;;;5204014;28;20037;-71
2023/08/01 06:58:29;;;;;;;7.47;6.88;;;25.50;99.90;;;;;;5208480;28;20079;-71
2023/08/01 07:01:00;;;;;;;7.95;7.10;;;25.80;99.90;;;;;;5208027;28;20033;-70
2023/08/01 07:03:31;;;;;;;6.82;6.22;;;25.80;99.90;;;;;;5206796;28;20038;-71
2023/08/01 07:06:02;;;;;;;10.10;7.57;;;26.00;99.90;;;;;;5207509;28;20075;-71
2023/08/01 07:08:32;;;;;;;8.93;8.00;;;26.00;99.90;;;;;;5207257;28;20033;-71
2023/08/01 07:11:03;;;;;;;9.38;8.50;;;25.90;99.90;;;;;;5207163;28;20026;-70
2023/08/01 07:13:34;;;;;;;9.77;8.85;;;25.80;99.90;;;;;;5207254;28;20033;-71
2023/08/01 07:16:05;;;;;;;8.90;8.32;;;25.90;99.90;;;;;;5207258;28;20068;-71
2023/08/01 07:18:36;;;;;;;9.98;8.80;;;25.90;99.90;;;;;;5207356;28;20465;-70
2023/08/01 07:21:07;;;;;;;10.40;9.60;;;25.90;99.90;;;;;;5208335;28;20021;-71
2023/08/01 07:23:38;;;;;;;9.50;8.60;;;25.90;99.90;;;;;;5208328;28;20049;-71
2023/08/01 07:26:09;;;;;;;12.80;8.55;;;26.20;99.90;;;;;;5208380;28;20028;-71
2023/08/01 07:28:40;;;;;;;10.38;9.38;;;26.40;99.90;;;;;;5208020;28;20029;-70
2023/08/01 07:31:11;;;;;;;10.85;9.85;;;26.30;99.90;;;;;;5208276;28;20041;-71
2023/08/01 07:33:42;;;;;;;9.98;9.18;;;26.40;99.90;;;;;;5206999;28;20112;-71
2023/08/01 07:36:12;;;;;;;8.52;7.97;;;26.50;99.90;;;;;;5208119;28;20036;-71
2023/08/01 07:38:43;;;;;;;10.25;9.52;;;26.60;99.90;;;;;;5208135;28;20024;-70
2023/08/01 07:41:14;;;;;;;8.45;7.60;;;26.70;99.90;;;;;;5207910;28;20079;-71
2023/08/01 07:43:45;;;;;;;8.75;8.15;;;26.60;99.90;;;;;;5208010;28;20049;-71
2023/08/01 07:46:16;;;;;;;9.55;8.73;;;26.50;99.90;;;;;;5207924;28;20044;-70
2023/08/01 07:48:48;;;;;;;9.65;9.05;;;26.50;99.90;;;;;;5207634;28;20017;-71
2023/08/01 07:51:19;;;;;;;9.45;8.75;;;26.70;99.90;;;;;;5207804;28;20021;-70
2023/08/01 07:53:52;;;;;;;10.20;9.48;;;26.70;99.90;;;;;;5207430;28;20069;-71
2023/08/01 07:56:23;;;;;;;9.52;8.68;;;26.80;99.90;;;;;;5207154;28;20101;-71
2023/08/01 07:58:54;;;;;;;9.32;8.63;;;26.70;99.90;;;;;;5207272;28;20104;-71
2023/08/01 08:01:24;;;;;;;9.45;8.80;;;26.90;99.90;;;;;;5205049;28;20057;-70
2023/08/01 08:03:55;;;;;;;7.97;7.28;;;26.80;99.90;;;;;;5206150;28;20036;-71
2023/08/01 08:06:26;;;;;;;9.77;9.02;;;27.10;99.90;;;;;;5206234;28;20037;-71
2023/08/01 08:08:57;;;;;;;10.15;9.45;;;27.40;99.90;;;;;;5205701;28;20028;-71
2023/08/01 08:11:28;;;;;;;8.00;7.30;;;27.30;99.90;;;;;;5206202;28;20389;-71
2023/08/01 08:13:59;;;;;;;7.22;6.72;;;27.50;99.90;;;;;;5206090;28;20029;-71
2023/08/01 08:16:30;;;;;;;8.07;6.88;;;27.80;99.90;;;;;;5206999;28;20030;-71
2023/08/01 08:19:01;;;;;;;7.93;7.22;;;27.60;99.90;;;;;;5205864;28;20067;-70
2023/08/01 08:21:32;;;;;;;6.65;6.05;;;27.70;99.90;;;;;;5206583;28;20492;-71
2023/08/01 08:24:03;;;;;;;7.22;6.65;;;27.50;99.90;;;;;;5206463;28;20038;-72
2023/08/01 08:26:37;;;;;;;7.18;6.47;;;27.20;99.90;;;;;;5206986;28;20374;-71
2023/08/01 08:29:08;;;;;;;6.60;6.10;;;27.10;99.90;;;;;;5206831;28;20022;-72
2023/08/01 08:31:39;;;;;;;8.10;7.35;;;27.20;99.90;;;;;;5206922;28;20029;-72
2023/08/01 08:34:10;;;;;;;7.13;6.43;;;27.00;99.90;;;;;;5206389;28;20580;-71
2023/08/01 08:36:40;;;;;;;7.13;6.50;;;26.70;99.90;;;;;;5206471;28;20065;-71
2023/08/01 08:39:12;;;;;;;6.07;5.57;;;26.90;99.90;;;;;;5206862;28;20026;-71
2023/08/01 08:41:47;;;;;;;7.30;5.45;;;27.00;99.90;;;;;;5206300;28;20032;-71
2023/08/01 08:44:24;;;;;;;5.95;5.45;;;27.50;99.90;;;;;;5203866;28;20544;-71
2023/08/01 08:46:59;;;;;;;6.38;5.95;;;27.70;99.90;;;;;;5206848;28;20505;-71
2023/08/01 08:49:32;;;;;;;6.63;6.10;;;27.70;99.90;;;;;;5206565;28;20029;-71
2023/08/01 08:52:03;;;;;;;6.20;5.68;;;28.00;99.90;;;;;;5206542;28;20033;-71
2023/08/01 08:54:36;;;;;;;4.88;4.47;;;28.10;99.90;;;;;;5205680;28;20053;-71
2023/08/01 08:57:08;;;;;;;4.38;4.07;;;28.10;99.90;;;;;;5205542;28;20029;-71
2023/08/01 08:59:39;;;;;;;4.93;4.50;;;28.00;99.90;;;;;;5204820;28;20018;-71
2023/08/01 09:02:10;;;;;;;4.80;4.40;;;28.20;99.90;;;;;;5204527;28;20037;-71
2023/08/01 09:04:41;;;;;;;7.78;3.95;;;28.50;99.90;;;;;;5204498;28;20026;-70
2023/08/01 09:07:15;;;;;;;5.85;5.07;;;28.50;99.90;;;;;;5204603;28;20420;-71
2023/08/01 09:09:46;;;;;;;5.18;4.78;;;28.90;99.90;;;;;;5204482;28;20025;-71
2023/08/01 09:12:17;;;;;;;5.90;5.40;;;29.00;99.90;;;;;;5205397;28;20025;-73
2023/08/01 09:14:50;;;;;;;8.15;6.05;;;28.90;99.90;;;;;;5203224;28;20144;-72
2023/08/01 09:17:21;;;;;;;7.03;6.38;;;28.80;99.90;;;;;;5205698;28;20032;-72
2023/08/01 09:20:08;;;;;;;6.18;5.55;;;28.50;99.90;;;;;;5204826;28;20029;-74
2023/08/01 09:22:46;;;;;;;6.43;5.43;;;28.50;99.90;;;;;;5204408;28;20033;-71
2023/08/01 09:25:17;;;;;;;5.68;5.18;;;28.20;99.90;;;;;;5204305;28;20469;-70
2023/08/01 09:27:47;;;;;;;6.68;6.10;;;28.30;99.90;;;;;;5203002;28;20030;-70
2023/08/01 09:30:18;;;;;;;7.55;5.75;;;28.10;99.90;;;;;;5205529;28;20005;-70
2023/08/01 09:32:56;;;;;;;6.45;5.95;;;28.20;99.90;;;;;;5205725;28;20111;-71
2023/08/01 09:35:27;;;;;;;6.13;5.72;;;27.90;99.90;;;;;;5205920;28;20018;-71
2023/08/01 09:38:00;;;;;;;5.75;5.25;;;28.40;99.90;;;;;;5206019;28;20029;-71
2023/08/01 09:40:38;;;;;;;5.53;5.03;;;28.70;99.90;;;;;;5206065;28;20484;-71
2023/08/01 09:43:10;;;;;;;7.03;4.05;;;29.00;99.90;;;;;;5205862;28;20468;-70
2023/08/01 09:45:54;;;;;;;5.10;4.70;;;29.00;99.90;;;;;;5205838;28;20044;-71
2023/08/01 09:48:29;;;;;;;5.32;4.88;;;28.40;99.90;;;;;;5204979;28;20045;-72
2023/08/01 09:51:08;;;;;;;6.10;5.50;;;28.90;99.90;;;;;;5204489;28;20496;-71
2023/08/01 09:53:53;;;;;;;5.40;5.10;;;28.50;99.90;;;;;;5203092;28;20120;-71
2023/08/01 09:56:27;;;;;;;5.68;5.28;;;28.90;99.90;;;;;;5203339;28;20034;-71
2023/08/01 09:59:01;;;;;;;5.55;5.05;;;29.10;99.90;;;;;;5204119;28;20022;-71
2023/08/01 10:01:33;;;;;;;5.43;4.75;;;29.30;99.90;;;;;;5204367;28;20055;-71
2023/08/01 10:04:06;;;;;;;4.15;3.75;;;29.20;99.90;;;;;;5205201;28;20030;-70
2023/08/01 10:06:38;;;;;;;5.95;4.43;;;28.80;99.90;;;;;;5205128;28;20053;-70
2023/08/01 10:09:11;;;;;;;6.28;5.10;;;28.70;99.90;;;;;;5205506;28;20033;-71
2023/08/01 10:11:43;;;;;;;4.85;4.47;;;29.00;99.90;;;;;;5205348;28;20568;-71
2023/08/01 10:14:15;;;;;;;5.22;3.88;;;29.30;99.90;;;;;;5205286;28;20092;-71
2023/08/01 10:16:47;;;;;;;5.78;3.38;;;29.40;99.90;;;;;;5205222;28;20543;-71
2023/08/01 10:19:19;;;;;;;5.63;3.70;;;29.40;99.90;;;;;;5205167;28;20029;-70
2023/08/01 10:21:51;;;;;;;4.30;3.17;;;29.40;99.90;;;;;;5205364;28;20065;-71
2023/08/01 10:24:24;;;;;;;4.40;2.90;;;29.70;99.90;;;;;;5205281;28;20037;-71
2023/08/01 10:26:55;;;;;;;3.80;3.50;;;29.60;99.90;;;;;;5205449;28;20030;-71
2023/08/01 10:29:36;;;;;;;3.95;3.20;;;29.40;99.90;;;;;;5205279;28;20077;-71
2023/08/01 10:32:07;;;;;;;2.83;2.63;;;29.20;99.90;;;;;;5208195;28;20041;-71
2023/08/01 10:34:38;;;;;;;4.70;2.85;;;29.50;99.90;;;;;;5207991;28;20100;-70
2023/08/01 10:37:09;;;;;;;3.38;3.08;;;29.30;99.90;;;;;;5209460;28;20041;-70
2023/08/01 10:39:40;;;;;;;3.40;2.90;;;29.30;99.90;;;;;;5209188;28;20025;-71
2023/08/01 10:42:12;;;;;;;4.43;3.00;;;29.40;99.90;;;;;;5207303;28;20064;-72
2023/08/01 10:44:46;;;;;;;3.85;2.90;;;29.60;99.90;;;;;;5206477;28;20105;-72
2023/08/01 10:47:27;;;;;;;3.60;3.15;;;29.60;99.90;;;;;;5208659;28;20038;-71
2023/08/01 10:49:58;;;;;;;3.40;3.10;;;29.70;99.90;;;;;;5206597;28;20037;-71
2023/08/01 10:52:29;;;;;;;3.25;2.97;;;29.60;99.90;;;;;;5207359;28;20021;-71
2023/08/01 10:55:02;;;;;;;3.67;3.38;;;29.80;99.90;;;;;;5207395;28;20539;-71
2023/08/01 10:57:48;;;;;;;3.35;3.03;;;29.90;99.90;;;;;;5207453;28;20028;-71
2023/08/01 11:00:20;;;;;;;3.95;3.65;;;29.80;99.90;;;;;;5207036;28;20083;-71
2023/08/01 11:02:54;;;;;;;4.40;4.00;;;29.70;99.90;;;;;;5207160;28;20045;-71
2023/08/01 11:05:28;;;;;;;4.32;4.03;;;29.90;99.90;;;;;;5208045;28;20057;-71
2023/08/01 11:08:01;;;;;;;5.82;4.75;;;30.00;99.90;;;;;;5207858;28;20021;-70
2023/08/01 11:10:32;;;;;;;5.75;3.60;;;30.10;99.90;;;;;;5208453;28;20057;-71
2023/08/01 11:13:03;;;;;;;3.55;3.25;;;30.10;99.90;;;;;;5207259;28;20489;-71
2023/08/01 11:15:37;;;;;;;3.70;3.40;;;29.80;99.90;;;;;;5208461;28;20018;-71
2023/08/01 11:18:09;;;;;;;4.50;3.70;;;29.90;99.90;;;;;;5207060;28;20032;-70
2023/08/01 11:20:41;;;;;;;3.53;3.10;;;30.20;99.90;;;;;;5208509;28;20107;-71
2023/08/01 11:23:12;;;;;;;8.05;4.20;;;30.30;99.90;;;;;;5208568;28;20064;-71
2023/08/01 11:25:45;;;;;;;3.58;3.28;;;30.30;99.90;;;;;;5208391;28;20017;-71
2023/08/01 11:28:17;;;;;;;7.63;3.53;;;30.10;99.90;;;;;;5208177;28;20160;-70
2023/08/01 11:30:48;;;;;;;5.13;3.40;;;30.30;99.90;;;;;;5208064;28;20025;-71
2023/08/01 11:33:22;;;;;;;4.28;3.40;;;30.30;99.90;;;;;;5208076;28;20017;-71
2023/08/01 11:35:57;;;;;;;4.30;3.90;;;30.40;99.90;;;;;;5208063;28;20380;-71
2023/08/01 11:38:29;;;;;;;4.30;3.90;;;30.40;99.90;;;;;;5208006;28;20016;-70
2023/08/01 11:41:01;;;;;;;3.78;3.22;;;30.50;99.90;;;;;;5207574;28;20052;-71
2023/08/01 11:43:42;;;;;;;3.65;3.35;;;30.60;99.90;;;;;;5206753;28;20120;-71
2023/08/01 11:46:13;;;;;;;4.13;3.83;;;30.70;99.90;;;;;;5206727;28;20032;-71
2023/08/01 11:48:46;;;;;;;3.85;3.38;;;30.30;99.90;;;;;;5206391;28;20033;-72
2023/08/01 11:51:18;;;;;;;6.53;3.28;;;30.30;99.90;;;;;;5206491;28;20021;-71
2023/08/01 11:54:02;;;;;;;4.10;3.70;;;30.50;99.90;;;;;;5206159;28;20053;-71
2023/08/01 11:56:33;;;;;;;4.07;3.78;;;30.40;99.90;;;;;;5206691;28;20091;-71
2023/08/01 11:59:15;;;;;;;6.00;3.42;;;30.30;99.90;;;;;;5206833;28;20033;-71
2023/08/01 12:01:47;;;;;;;3.80;3.60;;;30.40;99.90;;;;;;5207828;28;20055;-70
2023/08/01 12:04:25;;;;;;;6.55;3.78;;;30.20;99.90;;;;;;5207640;28;20449;-71
2023/08/01 12:06:56;;;;;;;5.85;3.40;;;30.40;99.90;;;;;;5207669;28;20059;-71
2023/08/01 12:09:32;;;;;;;3.85;3.30;;;30.30;99.90;;;;;;5207560;28;20033;-70
2023/08/01 12:12:04;;;;;;;3.78;3.47;;;30.40;99.90;;;;;;5207501;28;20021;-70
2023/08/01 12:14:40;;;;;;;4.78;3.15;;;30.50;99.90;;;;;;5207555;28;20060;-70
2023/08/01 12:17:11;;;;;;;3.40;3.15;;;30.60;99.90;;;;;;5207481;28;20033;-70
2023/08/01 12:19:41;;;;;;;4.47;3.42;;;30.50;99.90;;;;;;5207189;28;20026;-71
2023/08/01 12:22:13;;;;;;;5.53;2.95;;;30.60;99.90;;;;;;5207239;28;20021;-70
2023/08/01 12:24:44;;;;;;;3.53;2.95;;;30.40;99.90;;;;;;5207104;28;20042;-70
2023/08/01 12:27:15;;;;;;;3.38;3.08;;;30.50;99.90;;;;;;5207234;28;20051;-71
2023/08/01 12:29:46;;;;;;;4.03;3.55;;;30.30;99.90;;;;;;5207012;28;20040;-71
2023/08/01 12:32:16;;;;;;;4.25;3.00;;;30.70;99.90;;;;;;5207036;28;20014;-71
2023/08/01 12:34:47;;;;;;;3.55;3.25;;;30.80;99.90;;;;;;5207037;28;20032;-71
2023/08/01 12:37:18;;;;;;;5.78;3.05;;;30.90;99.90;;;;;;5206190;28;20017;-71
2023/08/01 12:39:49;;;;;;;5.63;3.00;;;30.50;99.90;;;;;;5206595;28;20025;-70
2023/08/01 12:42:20;;;;;;;18.58;3.95;;;29.90;99.90;;;;;;5205501;28;20033;-71
2023/08/01 12:44:51;;;;;;;4.90;2.70;;;30.40;99.90;;;;;;5205530;28;20029;-71
2023/08/01 12:47:21;;;;;;;3.33;3.03;;;30.10;99.90;;;;;;5205430;28;20025;-71
2023/08/01 12:49:54;;;;;;;3.65;3.20;;;30.10;99.90;;;;;;5205292;28;20607;-70
2023/08/01 12:52:25;;;;;;;2.97;2.78;;;30.20;99.90;;;;;;5205262;28;20013;-70
2023/08/01 12:54:56;;;;;;;7.07;3.42;;;29.80;99.90;;;;;;5205200;28;20065;-71
2023/08/01 12:57:27;;;;;;;4.75;3.72;;;29.80;99.90;;;;;;5206552;28;20033;-70
2023/08/01 12:59:58;;;;;;;5.20;3.25;;;29.60;99.90;;;;;;5206374;28;20017;-72
2023/08/01 13:02:29;;;;;;;4.35;3.70;;;29.60;99.90;;;;;;5206426;28;20029;-71
2023/08/01 13:04:59;;;;;;;4.22;3.30;;;29.30;99.90;;;;;;5206397;28;20025;-72
2023/08/01 13:07:34;;;;;;;4.28;3.10;;;29.30;99.90;;;;;;5206733;28;20059;-72
2023/08/01 13:10:05;;;;;;;3.47;3.17;;;29.00;99.90;;;;;;5206363;28;20108;-71